Terminal Aerodrome Forecast
Issued by NWS Twin Cities, MN

Home | Current Version | Previous Version | Graphics & Text | Print | Product List | Glossary On
Versions: 1 2 3 4 5 6 7 8 9 10 11 12 13 14 15 16 17 18 19 20 21 22 23 24 25 26 27 28
000
FTUS43 KMPX 222000 AAA
TAFMSP
TAF AMD
KMSP 222059Z 2221/2324 11011KT 3SM -RASN BR OVC006
      TEMPO 2221/2224 1 1/2SM -SN OVC009
     FM230300 07012KT 3SM -SN BR OVC008
     FM230900 03015KT 1 1/2SM -SN BR OVC005
     FM231800 36012KT 3SM -SN OVC006=

USA.gov is the U.S. government's official web portal to all federal, state and local government web resources and services.